Time;durP1;ratioP1;P1;durP2;ratioP2;P2;SDS_P1;SDS_P2;PMS_P1;PMS_P2;Temp;Humidity;BMP_temperature;BMP_pressure;BME280_temperature;BME280_humidity;BME280_pressure;Samples;Min_cycle;Max_cycle;Signal;HPM_P1;HPM_P2
2022/09/02 00:00:21;;;;;;;49.83;33.20;;;;;;;17.70;51.18;101566.53;5298239;28;20390;-67
2022/09/02 00:02:53;;;;;;;53.97;35.50;;;;;;;17.72;51.28;101561.88;5295738;28;20406;-68
2022/09/02 00:05:24;;;;;;;65.45;41.08;;;;;;;17.67;51.32;101561.53;5299011;28;20544;-67
2022/09/02 00:07:56;;;;;;;70.53;45.20;;;;;;;17.66;51.67;101559.88;5296135;28;20031;-67
2022/09/02 00:10:27;;;;;;;72.60;48.40;;;;;;;17.58;52.22;101551.91;5297736;28;20065;-67
2022/09/02 00:12:59;;;;;;;81.65;53.25;;;;;;;17.59;51.98;101550.06;5297387;28;20024;-67
2022/09/02 00:15:30;;;;;;;84.40;53.72;;;;;;;17.52;52.19;101540.09;5289710;28;20036;-67
2022/09/02 00:18:02;;;;;;;80.45;49.30;;;;;;;17.51;52.79;101543.75;5297080;28;20039;-67
2022/09/02 00:20:33;;;;;;;73.05;42.95;;;;;;;17.54;52.79;101549.69;5297039;28;20570;-67
2022/09/02 00:23:06;;;;;;;53.17;30.30;;;;;;;17.54;52.51;101547.06;5298778;28;20119;-67
2022/09/02 00:25:38;;;;;;;;;;;;;;;18.12;49.47;101547.13;5298329;28;20028;-67
2022/09/02 00:28:12;;;;;;;15.57;7.80;;;;;;;17.50;52.77;101546.53;5297661;28;19934;-67
2022/09/02 00:30:44;;;;;;;9.43;4.57;;;;;;;17.37;53.16;101543.50;5298458;28;20015;-67
2022/09/02 00:33:16;;;;;;;13.50;2.97;;;;;;;17.31;53.46;101541.47;5296944;28;20036;-67
2022/09/02 00:35:48;;;;;;;3.80;1.80;;;;;;;17.18;53.86;101536.59;5296746;28;20088;-67
2022/09/02 00:38:19;;;;;;;5.05;1.63;;;;;;;17.16;54.20;101542.06;5298029;28;20032;-67
2022/09/02 00:40:50;;;;;;;2.40;1.70;;;;;;;17.21;54.03;101538.94;5296273;28;20073;-67
2022/09/02 00:43:36;;;;;;;2.90;1.27;;;;;;;17.36;53.50;101533.91;5295842;28;20055;-67
2022/09/02 00:46:08;;;;;;;5.93;2.88;;;;;;;17.11;54.36;101539.03;5289085;28;20569;-67
2022/09/02 00:48:44;;;;;;;6.32;3.08;;;;;;;17.17;54.47;101540.25;5297831;28;20020;-67
2022/09/02 00:51:16;;;;;;;10.18;2.83;;;;;;;17.04;54.70;101532.72;5295876;28;20024;-67
2022/09/02 00:53:48;;;;;;;6.18;2.90;;;;;;;17.03;55.12;101539.81;5296456;28;20063;-67
2022/09/02 00:56:26;;;;;;;6.30;2.72;;;;;;;17.10;54.67;101528.63;5296169;28;20020;-67
2022/09/02 00:58:59;;;;;;;4.72;1.83;;;;;;;16.96;55.41;101530.00;5295966;28;20024;-67
2022/09/02 01:01:30;;;;;;;;;;;;;;;17.63;51.37;101527.56;5296718;28;20016;-67
2022/09/02 01:04:02;;;;;;;5.53;2.20;;;;;;;17.01;54.92;101525.09;5295172;28;19919;-67
2022/09/02 01:06:33;;;;;;;4.78;1.50;;;;;;;16.89;55.60;101531.59;5296145;28;20492;-67
2022/09/02 01:09:10;;;;;;;4.38;1.50;;;;;;;16.95;55.56;101525.72;5295197;28;20127;-67
2022/09/02 01:11:51;;;;;;;4.43;1.50;;;;;;;16.85;56.20;101524.97;5295339;28;20505;-67
2022/09/02 01:14:23;;;;;;;5.60;1.33;;;;;;;16.84;56.07;101520.66;5296927;28;20166;-67
2022/09/02 01:16:58;;;;;;;5.97;1.50;;;;;;;16.78;56.12;101520.31;5295627;28;20035;-68
2022/09/02 01:19:58;;;;;;;5.93;1.35;;;;;;;17.05;54.81;101518.50;5297065;28;20031;-67
2022/09/02 01:22:30;;;;;;;4.30;1.30;;;;;;;16.70;56.79;101517.53;5294021;28;20395;-67
2022/09/02 01:25:12;;;;;;;5.97;1.52;;;;;;;16.80;56.43;101516.66;5296699;28;20035;-67
2022/09/02 01:27:44;;;;;;;3.75;1.45;;;;;;;16.68;56.97;101518.69;5296453;28;20356;-67
2022/09/02 01:30:22;;;;;;;3.17;1.33;;;;;;;16.71;57.02;101519.22;5296857;28;20036;-67
2022/09/02 01:32:54;;;;;;;3.50;1.17;;;;;;;16.66;57.05;101516.19;5297700;28;20020;-67
2022/09/02 01:35:26;;;;;;;4.53;1.60;;;;;;;16.53;58.07;101521.88;5296466;28;20051;-67
2022/09/02 01:37:58;;;;;;;2.78;1.27;;;;;;;16.55;57.82;101519.06;5295428;28;20552;-67
2022/09/02 01:40:31;;;;;;;4.25;1.70;;;;;;;16.60;57.82;101511.53;5296373;28;20059;-67
2022/09/02 01:43:06;;;;;;;3.08;1.48;;;;;;;16.64;57.51;101504.94;5296456;28;20707;-67
2022/09/02 01:45:39;;;;;;;3.53;1.38;;;;;;;16.53;57.97;101506.00;5296200;28;20119;-67
2022/09/02 01:48:13;;;;;;;3.70;1.30;;;;;;;16.52;57.69;101514.13;5295725;28;20040;-67
2022/09/02 01:50:46;;;;;;;;;;;;;;;17.16;54.17;101505.00;5297107;28;20058;-67
2022/09/02 01:53:18;;;;;;;4.53;1.40;;;;;;;16.51;57.75;101505.31;5295151;28;19912;-67
2022/09/02 01:55:49;;;;;;;4.10;1.27;;;;;;;16.43;58.12;101509.72;5297044;28;20024;-67
2022/09/02 01:58:20;;;;;;;4.10;1.65;;;;;;;16.35;58.38;101496.44;5296089;28;20119;-67
2022/09/02 02:00:52;;;;;;;4.95;1.98;;;;;;;16.39;58.41;101498.63;5295379;28;20065;-67
2022/09/02 02:03:24;;;;;;;4.78;1.27;;;;;;;16.35;58.57;101502.53;5309757;22;20223;-71
2022/09/02 02:05:55;;;;;;;7.67;1.60;;;;;;;16.35;58.60;101505.19;5251764;28;20039;-73
2022/09/02 02:08:26;;;;;;;5.00;1.67;;;;;;;16.36;58.81;101503.38;5252921;28;20028;-73
2022/09/02 02:10:59;;;;;;;4.32;1.35;;;;;;;16.30;59.00;101510.94;5274167;28;20406;-74
2022/09/02 02:13:31;;;;;;;3.20;1.30;;;;;;;16.37;59.40;101511.16;5273180;28;20032;-73
2022/09/02 02:16:03;;;;;;;3.95;1.42;;;;;;;16.27;59.49;101502.47;5274957;28;20055;-73
2022/09/02 02:18:34;;;;;;;4.53;1.40;;;;;;;16.25;59.62;101505.28;5275656;28;20017;-73
2022/09/02 02:21:06;;;;;;;5.47;1.50;;;;;;;16.25;59.67;101507.06;5250186;28;20074;-73
2022/09/02 02:23:38;;;;;;;4.93;1.45;;;;;;;16.35;59.27;101507.84;5273692;28;20077;-74
2022/09/02 02:26:09;;;;;;;2.45;1.38;;;;;;;16.38;59.17;101506.72;5275637;28;20041;-71
2022/09/02 02:28:40;;;;;;;4.55;1.35;;;;;;;16.37;59.44;101502.41;5271738;28;20025;-74
2022/09/02 02:31:11;;;;;;;5.85;1.65;;;;;;;16.25;59.51;101502.66;5255925;28;20082;-71
2022/09/02 02:33:43;;;;;;;5.53;1.83;;;;;;;16.28;59.55;101499.66;5274760;28;20042;-71
2022/09/02 02:36:14;;;;;;;4.03;1.25;;;;;;;16.27;59.72;101499.84;5276838;28;20031;-71
2022/09/02 02:38:46;;;;;;;5.68;1.50;;;;;;;16.25;59.48;101483.28;5274647;28;20962;-72
2022/09/02 02:41:17;;;;;;;4.95;1.55;;;;;;;16.27;59.58;101494.53;5273749;28;20035;-72
2022/09/02 02:43:48;;;;;;;4.90;1.92;;;;;;;16.23;59.75;101490.53;5273696;28;20058;-72
2022/09/02 02:46:20;;;;;;;6.75;1.73;;;;;;;16.23;59.89;101491.38;5274676;28;20443;-72
2022/09/02 02:48:51;;;;;;;3.83;1.70;;;;;;;16.21;59.83;101485.41;5274115;28;20387;-72
2022/09/02 02:51:22;;;;;;;5.18;1.77;;;;;;;16.19;60.02;101484.72;5275115;28;20086;-72
2022/09/02 02:53:54;;;;;;;4.65;1.77;;;;;;;16.23;59.71;101493.19;5275572;28;20024;-72
2022/09/02 02:56:27;;;;;;;4.38;1.50;;;;;;;16.19;60.21;101492.66;5256999;28;20025;-73
2022/09/02 02:59:01;;;;;;;4.13;1.63;;;;;;;16.21;59.85;101493.34;5272530;28;20039;-72
2022/09/02 03:01:33;;;;;;;5.00;1.58;;;;;;;16.19;60.66;101494.47;5274676;28;20028;-72
2022/09/02 03:04:05;;;;;;;2.78;1.60;;;;;;;16.15;60.10;101487.84;5282703;28;20044;-72
2022/09/02 03:06:36;;;;;;;4.60;1.33;;;;;;;16.16;60.55;101481.56;5269555;28;20454;-72
2022/09/02 03:09:07;;;;;;;5.47;2.00;;;;;;;16.14;60.21;101479.06;5296691;28;20425;-72
2022/09/02 03:11:39;;;;;;;5.43;1.65;;;;;;;16.13;60.14;101480.03;5296856;28;20378;-71
2022/09/02 03:14:10;;;;;;;5.40;1.95;;;;;;;16.09;60.33;101475.19;5295499;28;20042;-72
2022/09/02 03:16:42;;;;;;;6.05;1.73;;;;;;;16.21;59.85;101488.06;5294438;28;20640;-72
2022/09/02 03:19:13;;;;;;;5.60;2.08;;;;;;;16.18;59.78;101477.78;5295183;28;20479;-72
2022/09/02 03:21:44;;;;;;;3.97;1.90;;;;;;;16.11;60.32;101479.38;5295663;28;20085;-72
2022/09/02 03:24:16;;;;;;;4.63;2.00;;;;;;;16.20;59.76;101483.72;5277201;28;20052;-72
2022/09/02 03:26:47;;;;;;;3.92;1.67;;;;;;;16.08;60.49;101470.91;5295761;28;20806;-72
2022/09/02 03:29:19;;;;;;;3.78;1.92;;;;;;;16.12;60.02;101472.25;5277493;28;20020;-71
2022/09/02 03:31:50;;;;;;;12.25;2.08;;;;;;;16.07;60.60;101471.91;5293280;28;20235;-73
2022/09/02 03:34:22;;;;;;;3.63;1.40;;;;;;;16.07;60.35;101472.72;5296773;28;20024;-72
2022/09/02 03:36:53;;;;;;;4.68;2.05;;;;;;;16.06;60.67;101476.31;5277167;28;20020;-72
2022/09/02 03:39:24;;;;;;;3.90;2.00;;;;;;;16.01;60.69;101470.66;5298515;28;20097;-72
2022/09/02 03:41:56;;;;;;;4.30;1.88;;;;;;;16.00;61.42;101466.38;5280831;28;20102;-73
2022/09/02 03:44:27;;;;;;;4.90;1.70;;;;;;;16.05;60.80;101466.75;5279707;28;20024;-73
2022/09/02 03:46:59;;;;;;;4.57;1.70;;;;;;;15.94;61.13;101461.69;5299244;28;20023;-73
2022/09/02 03:49:30;;;;;;;4.25;2.25;;;;;;;15.89;61.41;101467.41;5296579;28;20093;-73
2022/09/02 03:52:02;;;;;;;6.95;2.53;;;;;;;15.88;61.51;101468.41;5296756;28;20023;-73
2022/09/02 03:54:33;;;;;;;4.45;2.20;;;;;;;15.85;61.85;101463.41;5299381;28;20124;-72
2022/09/02 03:57:05;;;;;;;7.43;2.38;;;;;;;15.79;62.14;101458.72;5295821;28;20161;-72
2022/09/02 03:59:36;;;;;;;5.18;2.15;;;;;;;15.84;62.15;101461.75;5281369;28;20031;-73
2022/09/02 04:02:07;;;;;;;4.72;2.15;;;;;;;15.78;62.31;101457.88;5294179;28;20080;-71
2022/09/02 04:04:39;;;;;;;5.70;2.60;;;;;;;15.74;62.75;101456.53;5296647;28;20123;-73
2022/09/02 04:07:10;;;;;;;10.13;2.03;;;;;;;15.74;62.62;101460.97;5295413;28;20461;-72
2022/09/02 04:09:41;;;;;;;6.15;2.55;;;;;;;15.65;62.74;101452.16;5298726;28;20052;-73
2022/09/02 04:12:12;;;;;;;9.10;2.65;;;;;;;15.63;63.07;101461.97;5298598;28;20035;-72
2022/09/02 04:14:44;;;;;;;6.35;2.30;;;;;;;15.67;62.99;101458.09;5296688;28;20027;-74
2022/09/02 04:17:15;;;;;;;4.55;2.33;;;;;;;15.61;63.06;101460.47;5295998;28;20028;-72
2022/09/02 04:19:46;;;;;;;5.72;2.85;;;;;;;15.50;64.12;101453.59;5298136;28;20114;-73
2022/09/02 04:22:18;;;;;;;4.32;2.58;;;;;;;15.55;63.74;101448.69;5297543;28;20435;-72
2022/09/02 04:24:49;;;;;;;6.00;2.63;;;;;;;15.44;64.02;101433.03;5297176;28;20038;-73
2022/09/02 04:27:20;;;;;;;6.40;2.97;;;;;;;15.51;63.88;101447.31;5298598;28;20045;-72
2022/09/02 04:29:52;;;;;;;9.18;3.47;;;;;;;15.54;63.96;101445.22;5298191;28;20380;-72
2022/09/02 04:32:25;;;;;;;9.95;3.80;;;;;;;15.52;64.30;101443.69;5278809;28;20039;-73
2022/09/02 04:34:56;;;;;;;;;;;;;;;16.14;60.13;101449.13;5297403;28;20032;-72
2022/09/02 04:37:27;;;;;;;8.73;3.07;;;;;;;15.50;64.59;101440.38;5279389;28;19935;-72
2022/09/02 04:39:59;;;;;;;7.50;3.53;;;;;;;15.42;64.85;101438.47;5279273;28;20301;-72
2022/09/02 04:42:30;;;;;;;5.85;3.33;;;;;;;15.50;64.80;101443.03;5295709;28;20305;-72
2022/09/02 04:45:02;;;;;;;9.80;3.53;;;;;;;15.46;65.33;101444.31;5297027;28;20038;-72
2022/09/02 04:47:33;;;;;;;8.57;3.42;;;;;;;15.41;65.72;101431.53;5298387;28;20020;-72
2022/09/02 04:50:05;;;;;;;8.13;3.55;;;;;;;15.50;65.32;101443.03;5278492;28;20111;-72
2022/09/02 04:52:36;;;;;;;7.80;3.95;;;;;;;15.48;64.86;101443.16;5297077;28;20429;-72
2022/09/02 04:55:09;;;;;;;9.73;4.03;;;;;;;15.52;66.26;101441.88;5297203;28;20046;-72
2022/09/02 04:57:40;;;;;;;8.60;4.38;;;;;;;15.56;65.02;101445.06;5298549;28;20028;-72
2022/09/02 05:00:12;;;;;;;11.60;3.90;;;;;;;15.60;65.70;101449.06;5278795;28;20561;-72
2022/09/02 05:02:44;;;;;;;11.10;4.47;;;;;;;15.62;65.69;101439.19;5298818;28;20020;-72
2022/09/02 05:05:15;;;;;;;9.70;4.32;;;;;;;15.72;64.98;101441.78;5298800;28;20051;-72
2022/09/02 05:07:46;;;;;;;11.98;5.20;;;;;;;15.70;65.38;101441.94;5298648;28;20081;-74
2022/09/02 05:10:18;;;;;;;10.98;5.35;;;;;;;15.72;64.95;101437.38;5296892;28;20436;-72
2022/09/02 05:12:51;;;;;;;14.32;5.78;;;;;;;15.77;64.85;101442.19;5298144;28;20069;-73
2022/09/02 05:15:22;;;;;;;14.38;5.20;;;;;;;15.86;65.40;101443.09;5298629;28;20058;-73
2022/09/02 05:17:54;;;;;;;8.02;5.05;;;;;;;15.80;65.27;101440.09;5297123;28;20020;-73
2022/09/02 05:20:27;;;;;;;11.95;5.40;;;;;;;15.80;65.48;101432.16;5297339;28;20031;-73
2022/09/02 05:22:58;;;;;;;;;;;;;;;16.52;61.11;101446.16;5299241;28;20429;-73
2022/09/02 05:25:30;;;;;;;12.87;5.83;;;;;;;16.04;64.77;101446.59;5296386;28;19986;-73
2022/09/02 05:28:01;;;;;;;12.05;6.18;;;;;;;16.00;65.27;101434.66;5294588;28;20151;-73
2022/09/02 05:30:32;;;;;;;15.80;6.50;;;;;;;16.10;64.29;101434.56;5276861;28;20082;-72
2022/09/02 05:33:05;;;;;;;12.95;6.32;;;;;;;16.09;64.44;101446.94;5297696;28;20097;-73
2022/09/02 05:35:41;;;;;;;17.92;6.75;;;;;;;16.26;63.99;101443.47;5297282;28;20031;-73
2022/09/02 05:38:13;;;;;;;12.88;6.25;;;;;;;16.16;63.89;101439.25;5296411;28;20061;-73
2022/09/02 05:40:44;;;;;;;13.45;6.68;;;;;;;16.18;64.60;101434.66;5298011;28;20633;-72
2022/09/02 05:43:16;;;;;;;15.85;6.53;;;;;;;16.27;63.75;101439.03;5295713;28;20023;-73
2022/09/02 05:45:48;;;;;;;11.90;7.03;;;;;;;16.32;63.54;101434.09;5293164;28;20035;-72
2022/09/02 05:51:09;;;;;;;14.82;6.97;;;;;;;16.38;63.69;101441.44;5297492;28;20032;-73
2022/09/02 05:53:40;;;;;;;12.45;6.90;;;;;;;16.43;63.62;101444.44;5293967;28;20024;-73
2022/09/02 05:56:12;;;;;;;13.38;6.78;;;;;;;16.45;63.73;101444.28;5296616;28;20070;-72
2022/09/02 05:58:43;;;;;;;16.20;7.28;;;;;;;16.49;63.51;101440.34;5296188;28;20175;-72
2022/09/02 06:01:16;;;;;;;12.82;6.80;;;;;;;16.55;64.53;101437.06;5294601;28;20028;-72
2022/09/02 06:03:49;;;;;;;14.02;7.25;;;;;;;16.56;63.67;101432.63;5294897;28;20543;-72
2022/09/02 06:06:22;;;;;;;12.93;7.40;;;;;;;16.64;63.61;101433.53;5279307;28;20023;-74
2022/09/02 06:08:54;;;;;;;13.05;7.32;;;;;;;16.68;63.37;101434.03;5296667;28;20031;-73
2022/09/02 06:11:27;;;;;;;16.70;7.07;;;;;;;16.70;63.05;101438.16;5297113;28;20394;-72
2022/09/02 06:13:59;;;;;;;16.55;7.28;;;;;;;16.69;63.94;101435.69;5297803;28;20065;-73
2022/09/02 06:16:30;;;;;;;16.48;8.10;;;;;;;16.85;63.81;101442.94;5297387;28;20031;-72
2022/09/02 06:19:02;;;;;;;21.38;8.95;;;;;;;16.86;64.01;101436.63;5280146;28;20032;-73
2022/09/02 06:21:36;;;;;;;13.73;7.87;;;;;;;16.95;62.84;101441.84;5294814;28;20030;-73
2022/09/02 06:24:08;;;;;;;;;;;;;;;17.54;60.07;101434.00;5297600;28;20032;-73
2022/09/02 06:26:40;;;;;;;19.00;9.32;;;;;;;17.07;62.40;101439.75;5297496;28;19908;-73
2022/09/02 06:29:12;;;;;;;20.00;9.83;;;;;;;17.11;61.97;101435.78;5296646;28;20040;-72
2022/09/02 06:31:46;;;;;;;24.60;10.90;;;;;;;17.13;61.98;101427.72;5296204;28;20281;-73
2022/09/02 06:34:20;;;;;;;22.58;9.63;;;;;;;17.20;62.15;101434.03;5296964;28;20283;-72
2022/09/02 06:36:51;;;;;;;20.35;10.50;;;;;;;17.24;62.15;101428.25;5296540;28;20027;-72
2022/09/02 06:39:24;;;;;;;23.58;11.43;;;;;;;17.32;61.38;101434.56;5296362;28;20020;-73
2022/09/02 06:41:56;;;;;;;;;;;;;;;17.92;59.29;101439.72;5297916;28;20071;-73
2022/09/02 06:44:28;;;;;;;20.38;11.95;;;;;;;17.49;61.32;101433.63;5289697;28;19939;-73
2022/09/02 06:46:59;;;;;;;27.48;12.68;;;;;;;17.56;60.56;101428.50;5283907;28;20020;-72
2022/09/02 06:49:30;;;;;;;28.60;12.70;;;;;;;17.51;61.39;101410.47;5295269;28;20035;-73
2022/09/02 06:52:04;;;;;;;25.33;12.60;;;;;;;17.68;60.72;101417.44;5291544;28;20016;-72
2022/09/02 06:54:35;;;;;;;24.80;13.13;;;;;;;17.73;60.34;101424.91;5295575;28;20031;-72
2022/09/02 06:57:06;;;;;;;24.75;13.20;;;;;;;17.79;60.65;101428.75;5296010;28;20012;-72
2022/09/02 06:59:38;;;;;;;26.00;13.38;;;;;;;17.82;60.60;101423.97;5293481;28;20089;-72
2022/09/02 07:02:09;;;;;;;27.17;13.35;;;;;;;17.92;60.18;101429.13;5274350;28;20059;-73
2022/09/02 07:07:30;;;;;;;29.77;14.13;;;;;;;18.01;58.43;101408.75;5295959;28;20029;-72
2022/09/02 07:10:06;;;;;;;25.15;13.13;;;;;;;18.14;59.00;101428.44;5294234;28;20016;-72
2022/09/02 07:12:39;;;;;;;23.20;13.40;;;;;;;18.20;58.89;101421.69;5294547;28;20066;-72
2022/09/02 07:15:10;;;;;;;22.50;13.57;;;;;;;18.30;58.39;101419.69;5298996;28;20036;-73
2022/09/02 07:17:42;;;;;;;25.42;13.70;;;;;;;18.38;57.66;101413.56;5281648;28;20469;-71
2022/09/02 07:20:13;;;;;;;28.03;13.57;;;;;;;18.50;57.50;101416.69;5298130;28;20056;-71
2022/09/02 07:22:44;;;;;;;26.40;13.73;;;;;;;18.52;56.82;101412.84;5297520;28;20282;-72
2022/09/02 07:25:17;;;;;;;23.73;13.00;;;;;;;18.63;56.31;101415.16;5298391;28;20541;-71
2022/09/02 07:27:50;;;;;;;21.80;13.27;;;;;;;18.73;56.97;101416.84;5297642;28;20365;-72
2022/09/02 07:30:21;;;;;;;;;;;;;;;19.29;55.13;101412.34;5297244;28;20162;-71
2022/09/02 07:32:52;;;;;;;26.65;12.18;;;;;;;18.87;55.81;101409.00;5299518;28;20061;-71
2022/09/02 07:35:24;;;;;;;23.83;12.07;;;;;;;18.94;55.54;101415.28;5299658;28;20478;-72
2022/09/02 07:37:55;;;;;;;22.30;11.85;;;;;;;19.02;55.01;101411.78;5298636;28;20074;-71
2022/09/02 07:40:26;;;;;;;22.95;13.50;;;;;;;19.07;54.98;101404.13;5299735;28;20115;-72
2022/09/02 07:42:58;;;;;;;29.05;13.43;;;;;;;19.14;54.55;101409.56;5300259;28;20020;-71
2022/09/02 07:45:30;;;;;;;24.52;12.45;;;;;;;19.22;55.27;101406.06;5295552;28;20411;-72
2022/09/02 07:48:05;;;;;;;33.93;13.23;;;;;;;19.26;53.88;101410.84;5290367;28;20024;-71
2022/09/02 07:50:37;;;;;;;27.52;13.68;;;;;;;19.28;55.13;101402.69;5297221;28;20844;-72
2022/09/02 07:53:10;;;;;;;26.83;13.03;;;;;;;19.40;54.24;101407.47;5297424;28;20039;-72
2022/09/02 07:55:42;;;;;;;24.65;13.15;;;;;;;19.42;53.82;101413.41;5298218;28;20122;-72
2022/09/02 07:58:18;;;;;;;28.15;13.30;;;;;;;19.48;54.29;101406.59;5299003;28;20132;-72
2022/09/02 08:00:50;;;;;;;21.38;13.05;;;;;;;19.54;54.87;101407.69;5298629;28;20035;-72
2022/09/02 08:03:24;;;;;;;25.90;13.43;;;;;;;19.66;54.47;101407.16;5295361;28;20079;-72
2022/09/02 08:05:56;;;;;;;20.98;12.40;;;;;;;19.68;53.47;101409.63;5295144;28;20074;-72
2022/09/02 08:08:27;;;;;;;24.93;12.50;;;;;;;19.74;52.89;101408.13;5298650;28;20048;-72
2022/09/02 08:10:59;;;;;;;23.38;11.82;;;;;;;19.77;52.45;101402.44;5295378;28;20064;-72
2022/09/02 08:13:31;;;;;;;20.42;12.15;;;;;;;19.84;52.57;101400.72;5298051;28;20028;-72
2022/09/02 08:16:03;;;;;;;22.23;11.63;;;;;;;19.96;52.86;101396.63;5293593;28;20501;-72
2022/09/02 08:18:34;;;;;;;21.83;13.30;;;;;;;20.08;53.11;101400.56;5297676;28;20387;-72
2022/09/02 08:21:06;;;;;;;26.03;13.33;;;;;;;20.16;52.45;101394.34;5297412;28;20023;-72
2022/09/02 08:23:37;;;;;;;23.37;12.60;;;;;;;20.30;52.62;101392.69;5296126;28;20031;-73
2022/09/02 08:26:10;;;;;;;21.07;13.07;;;;;;;20.24;51.67;101388.94;5297922;28;20062;-73
2022/09/02 08:28:41;;;;;;;23.85;12.00;;;;;;;20.37;52.19;101386.47;5297514;28;20364;-73
2022/09/02 08:31:12;;;;;;;25.17;12.97;;;;;;;20.46;50.89;101389.91;5295662;28;20035;-73
2022/09/02 08:33:43;;;;;;;20.80;11.27;;;;;;;20.52;50.83;101375.06;5294629;28;20080;-73
2022/09/02 08:36:15;;;;;;;28.45;12.23;;;;;;;20.58;50.23;101377.00;5296368;28;20043;-73
2022/09/02 08:38:46;;;;;;;24.58;11.50;;;;;;;20.64;50.63;101374.41;5296489;28;20081;-74
2022/09/02 08:41:30;;;;;;;22.13;11.73;;;;;;;20.86;50.51;101377.16;5295363;28;20048;-73
2022/09/02 08:44:04;;;;;;;20.83;11.25;;;;;;;20.81;50.02;101384.88;5298664;28;20028;-73
2022/09/02 08:46:35;;;;;;;19.63;10.35;;;;;;;20.87;50.24;101385.00;5296563;28;20059;-73
2022/09/02 08:49:14;;;;;;;20.70;10.63;;;;;;;20.94;50.57;101370.91;5294863;28;20047;-73
2022/09/02 08:51:54;;;;;;;16.48;10.02;;;;;;;21.03;50.09;101389.28;5295780;28;20099;-73
2022/09/02 08:54:28;;;;;;;19.45;10.73;;;;;;;21.09;49.84;101388.53;5295999;28;20035;-73
2022/09/02 08:57:00;;;;;;;20.55;10.98;;;;;;;21.12;50.24;101390.81;5294272;28;20544;-73
2022/09/02 08:59:31;;;;;;;23.47;11.27;;;;;;;21.24;49.59;101383.16;5296471;28;20135;-73
2022/09/02 09:02:41;;;;;;;19.80;9.47;;;;;;;21.51;49.56;101380.84;5296007;28;20031;-72
2022/09/02 09:05:45;;;;;;;19.55;11.05;;;;;;;21.57;49.85;101393.41;5294915;28;20040;-73
2022/09/02 09:09:11;;;;;;;19.70;10.10;;;;;;;21.85;49.68;101390.81;5296472;28;20483;-72
2022/09/02 09:11:54;;;;;;;16.98;9.05;;;;;;;21.70;50.90;101390.88;5227162;28;20056;-72
2022/09/02 09:14:39;;;;;;;16.63;8.60;;;;;;;21.88;50.01;101394.94;5293862;28;20023;-72
2022/09/02 09:17:18;;;;;;;18.17;7.65;;;;;;;21.96;49.39;101392.97;5295859;28;20411;-72
2022/09/02 09:19:53;;;;;;;15.98;7.75;;;;;;;21.96;49.68;101392.97;5295256;28;20028;-73
2022/09/02 09:22:30;;;;;;;12.82;7.10;;;;;;;22.06;49.10;101387.31;5294941;28;20387;-72
2022/09/02 09:25:08;;;;;;;15.10;6.57;;;;;;;22.17;48.72;101389.50;5295418;28;20085;-73
2022/09/02 09:27:39;;;;;;;13.93;5.15;;;;;;;22.15;47.95;101382.69;5295849;28;20335;-72
2022/09/02 09:30:12;;;;;;;10.87;4.43;;;;;;;22.33;47.81;101383.03;5294293;28;20032;-73
2022/09/02 09:32:48;;;;;;;14.05;5.18;;;;;;;22.39;47.99;101386.75;5294630;28;20325;-72
2022/09/02 09:35:20;;;;;;;9.25;4.32;;;;;;;22.48;47.49;101381.09;5294521;28;20028;-72
2022/09/02 09:37:53;;;;;;;9.55;3.85;;;;;;;22.62;46.62;101379.34;5296185;28;20031;-72
2022/09/02 09:40:30;;;;;;;7.80;3.65;;;;;;;22.80;48.10;101379.63;5294464;28;20482;-72
2022/09/02 09:43:01;;;;;;;6.72;3.35;;;;;;;22.88;46.92;101375.13;5295981;28;20028;-73
2022/09/02 09:45:39;;;;;;;7.30;3.40;;;;;;;23.15;46.45;101371.59;5294432;28;20027;-73
2022/09/02 09:48:22;;;;;;;11.43;3.50;;;;;;;23.24;46.07;101374.91;5294992;28;20056;-72
2022/09/02 09:50:53;;;;;;;6.63;2.45;;;;;;;23.25;45.46;101366.69;5294541;28;20028;-72
2022/09/02 09:53:31;;;;;;;8.40;2.97;;;;;;;23.55;44.82;101367.16;5296633;28;20024;-72
2022/09/02 09:56:21;;;;;;;5.75;2.40;;;;;;;23.65;44.29;101364.13;5294366;28;20028;-73
2022/09/02 09:58:53;;;;;;;6.18;1.88;;;;;;;23.74;43.96;101365.59;5294720;28;20023;-72
2022/09/02 10:01:28;;;;;;;5.00;2.10;;;;;;;23.99;43.95;101365.81;5293107;28;20111;-72
2022/09/02 10:04:29;;;;;;;7.55;2.05;;;;;;;24.52;43.09;101356.94;5295121;28;20462;-73
2022/09/02 10:07:00;;;;;;;4.60;1.88;;;;;;;24.52;41.91;101347.03;5293410;28;20422;-73
2022/09/02 10:09:35;;;;;;;4.03;1.87;;;;;;;24.79;41.16;101348.81;5296168;28;20020;-73
2022/09/02 10:12:31;;;;;;;6.75;2.22;;;;;;;25.19;41.97;101347.63;5295178;28;20020;-73
2022/09/02 10:15:02;;;;;;;6.18;2.13;;;;;;;25.11;40.12;101345.16;5294342;28;20023;-73
2022/09/02 10:17:39;;;;;;;8.00;2.13;;;;;;;25.20;39.57;101351.13;5296007;28;20016;-74
2022/09/02 10:20:41;;;;;;;8.48;2.20;;;;;;;25.39;39.73;101344.00;5292813;28;20043;-73
2022/09/02 10:23:27;;;;;;;5.22;1.60;;;;;;;25.51;38.78;101346.81;5293136;28;20428;-73
2022/09/02 10:26:07;;;;;;;4.28;1.83;;;;;;;25.42;37.83;101336.34;5292157;28;20395;-73
2022/09/02 10:29:16;;;;;;;5.78;2.05;;;;;;;25.68;37.44;101337.19;5288265;28;20065;-72
2022/09/02 10:32:22;;;;;;;4.82;1.70;;;;;;;26.02;37.86;101329.72;5295016;28;20455;-72
2022/09/02 10:34:56;;;;;;;5.00;1.63;;;;;;;25.95;36.26;101335.97;5296333;28;20020;-74
2022/09/02 10:37:42;;;;;;;7.25;1.60;;;;;;;26.05;36.48;101323.91;5294086;28;20110;-72
2022/09/02 10:40:16;;;;;;;7.32;2.28;;;;;;;25.89;36.52;101336.03;5294314;28;20027;-72
2022/09/02 10:43:03;;;;;;;5.05;1.77;;;;;;;26.25;35.56;101329.88;5294193;28;20039;-73
2022/09/02 10:45:45;;;;;;;5.80;1.60;;;;;;;26.34;36.22;101333.13;5294604;28;20028;-72
2022/09/02 10:48:58;;;;;;;5.50;1.85;;;;;;;26.72;36.05;101324.06;5297449;28;20058;-73
2022/09/02 10:51:42;;;;;;;;;;;;;;;27.05;35.33;101327.13;5232441;28;20068;-72
2022/09/02 10:54:43;;;;;;;8.80;1.63;;;;;;;26.80;35.51;101316.50;5231223;28;20340;-72
2022/09/02 10:57:19;;;;;;;5.70;1.40;;;;;;;26.78;34.53;101310.50;5287712;28;20536;-72
2022/09/02 11:00:11;;;;;;;6.07;1.70;;;;;;;27.17;34.55;101300.31;5297484;28;20058;-72
2022/09/02 11:02:50;;;;;;;8.20;1.83;;;;;;;27.13;34.32;101313.41;5299947;28;20023;-73
2022/09/02 11:05:28;;;;;;;5.22;1.50;;;;;;;27.31;33.48;101306.28;5279366;28;20040;-72
2022/09/02 11:08:11;;;;;;;5.32;1.65;;;;;;;27.37;33.01;101298.13;5298523;28;20039;-73
2022/09/02 11:10:58;;;;;;;9.77;2.33;;;;;;;27.56;32.54;101303.44;5299844;28;20490;-72
2022/09/02 11:13:49;;;;;;;5.00;1.50;;;;;;;27.59;32.25;101286.81;5299709;28;20024;-73
2022/09/02 11:16:32;;;;;;;5.10;1.75;;;;;;;27.51;32.16;101296.06;5297629;28;20370;-74
2022/09/02 11:19:16;;;;;;;4.22;1.40;;;;;;;27.54;31.37;101284.00;5296434;28;20036;-72
2022/09/02 11:22:12;;;;;;;3.45;1.58;;;;;;;27.57;31.71;101276.28;5299132;28;20019;-73
2022/09/02 11:25:04;;;;;;;3.58;1.67;;;;;;;27.56;31.42;101271.97;5298222;28;20182;-73
2022/09/02 11:27:38;;;;;;;3.38;1.60;;;;;;;27.55;30.73;101269.50;5293214;28;20024;-74
2022/09/02 11:30:19;;;;;;;3.80;1.27;;;;;;;27.74;30.36;101263.00;5297073;28;20040;-73
2022/09/02 11:33:02;;;;;;;3.90;1.50;;;;;;;27.69;29.29;101270.91;5297546;28;20490;-73
2022/09/02 11:35:37;;;;;;;4.18;1.50;;;;;;;27.87;28.71;101262.75;5298819;28;20436;-73
2022/09/02 11:38:29;;;;;;;3.00;1.30;;;;;;;28.11;28.76;101244.69;5270450;28;20066;-73
2022/09/02 11:41:25;;;;;;;4.63;1.42;;;;;;;27.85;29.55;101254.09;5298369;28;20106;-74
2022/09/02 11:44:17;;;;;;;3.40;1.40;;;;;;;27.75;28.64;101258.44;5298603;28;20107;-74
2022/09/02 11:47:25;;;;;;;2.77;1.13;;;;;;;28.09;28.95;101256.75;5298793;28;20352;-73
2022/09/02 11:50:02;;;;;;;2.92;1.30;;;;;;;28.27;29.50;101255.81;5296472;28;20059;-73
2022/09/02 11:52:49;;;;;;;3.28;1.33;;;;;;;28.69;28.37;101248.31;5297645;28;20028;-73
2022/09/02 11:55:45;;;;;;;3.53;1.30;;;;;;;28.56;27.45;101240.50;5299428;28;20028;-73
2022/09/02 11:58:35;;;;;;;5.00;1.50;;;;;;;28.48;28.15;101240.88;5298075;28;20031;-73
2022/09/02 12:01:18;;;;;;;3.72;1.33;;;;;;;28.49;27.67;101237.13;5295859;28;20023;-73
2022/09/02 12:04:01;;;;;;;6.28;1.63;;;;;;;28.69;27.72;101237.53;5295789;28;20457;-72